Latest Weather Observations for Low Rocky Point

IDT60801

Issued at 2:05 am EST Thursday 24 April 2014 (issued every 30 minutes, with the page automatically refreshed every 10 minutes)

About weather observations | Map of weather stations | Latest weather observations for TAS | Other Formats
Station Details ID: 097080 Name: LOW ROCKY POINT Lat: -42.98 Lon: 145.50 Height: 34.0 m
Data from the previous 72 hours. | See also: Recent months at Low Rocky Point
Date/Time
EST
Temp
°C
App
Temp
°C
Dew
Point
Rel
Hum
%
Delta-T
°C
Wind Press
QNH
hPa
Press
MSL
hPa
Rain
since 9 am
mm
Dir
 
Spd
km/h
Gust
km/h
Spd
kts
Gust
kts
24/02:00am 10.4 -2.3 9.8 96 0.3 W 67 100 36 54 998.8 998.8 12.2
24/01:52am 11.9 -1.7 11.3 96 0.3 WNW 74 100 40 54 998.2 - 11.6
24/01:50am 13.3 5.1 13.0 98 0.2 NNW 48 83 26 45 998.1 - 11.2
24/01:33am 13.1 6.2 12.8 98 0.2 NNW 41 59 22 32 997.9 - 9.0
24/01:30am 13.1 6.2 12.8 98 0.2 NNW 41 57 22 31 998.0 - 8.6
24/01:00am 13.3 5.9 13.1 99 0.1 NNW 44 69 24 37 998.7 998.7 8.6
24/12:30am 13.0 5.1 12.7 98 0.2 N 46 72 25 39 999.5 - 7.6
24/12:00am 13.3 5.9 13.1 99 0.1 NNW 44 63 24 34 1000.3 1000.3 7.0
 
Date/Time
EST
Temp
°C
App
Temp
°C
Dew
Point
Rel
Hum
%
Delta-T
°C
Wind Press
QNH
hPa
Press
MSL
hPa
Rain
since 9 am
mm
Dir
 
Spd
km/h
Gust
km/h
Spd
kts
Gust
kts
23/11:30pm 12.7 5.7 12.4 98 0.2 NNW 41 59 22 32 1001.1 - 5.6
23/11:04pm 12.2 6.1 11.9 98 0.2 N 35 54 19 29 1001.8 - 5.0
23/11:00pm 12.2 6.1 11.7 97 0.3 N 35 52 19 28 1001.9 1001.9 4.8
23/10:30pm 12.1 4.8 11.6 97 0.3 N 41 63 22 34 1002.5 - 4.0
23/10:00pm 12.0 5.3 11.1 94 0.5 N 37 57 20 31 1003.0 1003.0 2.0
23/09:55pm 12.0 6.1 11.1 94 0.5 N 33 57 18 31 1003.2 - 2.0
23/09:30pm 12.4 5.1 10.3 87 1.1 N 39 52 21 28 1003.5 - 1.0
23/09:00pm 12.0 6.0 10.1 88 1.0 N 32 48 17 26 1004.1 1004.1 1.0
23/08:53pm 12.0 6.0 10.1 88 1.0 N 32 50 17 27 1004.2 - 1.0
23/08:30pm 12.2 5.7 10.3 88 1.0 N 35 52 19 28 1004.6 - 1.0
23/08:00pm 12.4 6.3 10.3 87 1.1 N 33 46 18 25 1005.2 1005.2 1.0
23/07:44pm 12.3 6.7 10.2 87 1.1 N 30 52 16 28 1005.3 - 1.0
23/07:30pm 12.2 6.3 10.3 88 1.0 N 32 44 17 24 1005.5 - 1.0
23/07:00pm 11.8 6.2 10.2 90 0.8 N 30 41 16 22 1005.7 1005.7 1.0
23/06:30pm 12.0 6.0 10.2 89 0.9 N 32 43 17 23 1006.0 - 0.8
23/06:00pm 12.0 5.8 10.2 89 0.9 N 33 52 18 28 1006.4 1006.4 0.4
23/05:51pm 12.6 6.4 10.0 84 1.3 NNW 33 52 18 28 1006.6 - 0.2
23/05:30pm 13.5 7.1 9.4 76 2.1 N 33 48 18 26 1006.5 - 0.2
23/05:00pm 13.5 7.3 9.9 79 1.9 N 33 43 18 23 1006.9 1006.9 0.2
23/04:30pm 13.5 7.6 10.5 82 1.6 N 32 41 17 22 1007.2 - 0.2
23/04:00pm 13.5 8.0 10.7 83 1.5 N 30 44 16 24 1007.5 1007.5 0.2
23/03:35pm 13.1 7.7 11.0 87 1.1 NNW 30 48 16 26 1007.7 - 0.2
23/03:30pm 13.1 7.7 11.0 87 1.1 N 30 41 16 22 1007.9 - 0.2
23/03:00pm 13.6 8.4 10.4 81 1.7 N 28 39 15 21 1008.0 1008.0 0.0
23/02:30pm 14.0 8.1 10.6 80 1.8 N 32 44 17 24 1008.5 - 0.0
23/02:00pm 13.9 8.0 10.5 80 1.8 NNW 32 43 17 23 1009.0 1009.0 0.0
23/01:31pm 13.1 6.5 10.1 82 1.5 NNW 35 54 19 29 1009.3 - 0.0
23/01:30pm 13.2 6.3 10.4 83 1.5 NNW 37 54 20 29 1009.3 - 0.0
23/01:18pm 13.5 6.1 9.7 78 2.0 NNW 39 59 21 32 1009.5 - 0.0
23/01:00pm 14.4 8.1 9.6 73 2.5 NNW 33 46 18 25 1009.7 1009.7 0.0
23/12:30pm 14.4 7.7 9.6 73 2.5 NNW 35 54 19 29 1010.1 - 0.0
23/12:02pm 14.9 8.6 9.7 71 2.7 NNW 33 52 18 28 1010.5 - 0.0
23/12:00pm 15.0 8.9 9.6 70 2.8 NNW 32 46 17 25 1010.6 1010.6 0.0
23/11:42am 14.1 8.5 10.1 77 2.1 NNW 30 48 16 26 1010.9 - 0.0
23/11:30am 14.2 8.4 9.6 74 2.4 NNW 30 41 16 22 1011.1 - 0.0
23/11:00am 13.8 8.0 9.3 74 2.3 NNW 30 43 16 23 1011.5 1011.5 0.0
23/10:30am 13.6 7.7 9.1 74 2.3 N 30 41 16 22 1011.6 - 0.0
23/10:00am 12.9 7.7 9.0 77 2.0 N 26 39 14 21 1012.0 1012.0 0.0
23/09:30am 12.6 7.9 9.2 80 1.7 N 24 33 13 18 1012.3 - 0.0
23/09:00am 11.9 6.7 8.9 82 1.5 N 26 39 14 21 1012.4 1012.4 1.2
23/08:30am 10.8 6.0 8.7 87 1.0 N 24 30 13 16 1012.7 - 1.2
23/08:00am 9.4 5.2 8.2 92 0.6 N 20 28 11 15 1012.8 1012.8 1.2
23/07:30am 8.9 4.6 7.7 92 0.6 N 20 26 11 14 1012.9 - 1.2
23/07:00am 8.9 4.2 7.7 92 0.6 N 22 28 12 15 1012.7 1012.7 1.2
23/06:30am 8.8 4.1 7.6 92 0.6 N 22 26 12 14 1012.6 - 1.2
23/06:00am 8.6 3.7 7.1 90 0.7 N 22 28 12 15 1012.9 1012.9 1.2
23/05:30am 8.6 4.3 6.9 89 0.8 N 19 22 10 12 1013.1 - 1.2
23/05:00am 9.5 5.2 6.9 84 1.2 N 19 24 10 13 1013.1 1013.1 1.2
23/04:30am 10.6 6.2 6.6 76 1.9 N 19 24 10 13 1013.1 - 1.2
23/04:00am 12.3 6.3 7.2 71 2.5 NW 28 39 15 21 1013.1 1013.1 1.2
23/03:30am 12.4 6.7 6.7 68 2.7 NW 26 32 14 17 1013.1 - 1.2
23/03:00am 12.3 6.6 6.8 69 2.6 NW 26 33 14 18 1013.3 1013.3 1.2
23/02:30am 12.0 6.8 7.3 73 2.3 NW 24 33 13 18 1013.4 - 1.2
23/02:00am 12.4 6.5 7.5 72 2.4 WNW 28 33 15 18 1013.6 1013.6 1.2
23/01:30am 12.3 5.5 7.0 70 2.5 WNW 32 35 17 19 1013.7 - 1.2
23/01:00am 12.1 5.6 6.4 68 2.7 WNW 30 35 16 19 1013.8 1013.8 1.2
23/12:30am 12.3 4.9 6.8 69 2.6 WNW 35 43 19 23 1013.7 - 1.2
23/12:00am 12.4 4.7 6.9 69 2.6 W 37 46 20 25 1013.7 1013.7 1.2
 
Date/Time
EST
Temp
°C
App
Temp
°C
Dew
Point
Rel
Hum
%
Delta-T
°C
Wind Press
QNH
hPa
Press
MSL
hPa
Rain
since 9 am
mm
Dir
 
Spd
km/h
Gust
km/h
Spd
kts
Gust
kts
22/11:30pm 12.4 4.7 7.3 71 2.5 WNW 37 44 20 24 1013.8 - 1.2
22/11:00pm 12.5 5.1 8.2 75 2.1 W 37 43 20 23 1013.7 1013.7 1.2
22/10:30pm 12.7 5.2 8.0 73 2.3 WNW 37 46 20 25 1013.7 - 1.2
22/10:00pm 12.7 5.8 8.8 77 2.0 WNW 35 46 19 25 1013.5 1013.5 1.2
22/09:30pm 12.6 5.2 8.5 76 2.0 WNW 37 43 20 23 1013.3 - 1.2
22/09:00pm 12.8 5.2 8.9 77 2.0 WNW 39 46 21 25 1013.1 1013.1 1.2
22/08:30pm 12.6 4.1 8.5 76 2.0 WNW 43 48 23 26 1012.9 - 1.2
22/08:00pm 12.5 3.6 9.1 80 1.7 WNW 46 54 25 29 1012.6 1012.6 1.2
22/07:30pm 13.1 4.7 8.8 75 2.2 WNW 43 48 23 26 1012.4 - 1.2
22/07:00pm 13.2 4.6 8.9 75 2.2 WNW 44 54 24 29 1012.2 1012.2 1.2
22/06:30pm 12.9 4.2 8.6 75 2.1 WNW 44 52 24 28 1011.8 - 1.2
22/06:00pm 13.0 4.1 9.1 77 2.0 WNW 46 56 25 30 1011.5 1011.5 1.2
22/05:30pm 12.8 3.9 9.1 78 1.9 WNW 46 54 25 29 1010.9 - 1.2
22/05:00pm 12.9 3.8 9.9 82 1.5 WNW 48 56 26 30 1010.7 1010.7 1.2
22/04:30pm 12.7 4.2 10.6 87 1.1 WNW 46 56 25 30 1010.5 - 1.2
22/04:00pm 12.0 2.3 10.4 90 0.8 WNW 52 72 28 39 1010.3 1010.3 1.2
22/03:51pm 13.2 3.8 10.0 81 1.6 WNW 50 72 27 39 1010.1 - 0.0
22/03:30pm 14.2 5.0 9.4 73 2.5 NW 48 61 26 33 1009.9 - 0.0
22/03:00pm 14.4 5.0 8.8 69 2.8 NW 48 61 26 33 1009.8 1009.8 0.0
22/02:30pm 15.0 6.5 9.4 69 2.9 NW 44 57 24 31 1009.8 - 0.0
22/02:00pm 15.0 6.4 8.9 67 3.1 NW 44 57 24 31 1009.8 1009.8 0.0
22/01:30pm 14.8 6.5 9.2 69 2.9 NW 43 52 23 28 1009.8 - 0.0
22/01:00pm 14.5 6.4 8.7 68 2.9 NW 41 50 22 27 1009.7 1009.7 0.0
22/12:30pm 14.4 6.0 8.8 69 2.8 WNW 43 54 23 29 1009.7 - 0.0
22/12:00pm 14.0 5.4 8.2 68 2.9 WNW 43 50 23 27 1009.6 1009.6 0.0
22/11:30am 14.3 6.2 8.7 69 2.8 WNW 41 52 22 28 1009.6 - 0.0
22/11:00am 13.8 6.4 8.2 69 2.8 WNW 37 43 20 23 1009.3 1009.3 0.0
22/10:30am 13.4 5.7 8.7 73 2.4 W 39 50 21 27 1009.0 - 0.0
22/10:00am 13.1 5.2 9.5 79 1.8 W 41 48 22 26 1008.6 1008.6 0.0
22/09:30am 12.9 4.6 9.5 80 1.7 W 43 56 23 30 1008.1 - 0.0
22/09:00am 12.9 4.8 10.8 87 1.1 W 44 54 24 29 1007.6 1007.6 10.8
22/08:30am 12.9 4.7 11.8 93 0.6 W 46 57 25 31 1007.0 - 10.8
22/08:00am 13.2 4.5 12.4 95 0.4 WNW 50 59 27 32 1006.2 1006.2 10.8
22/07:37am 14.0 6.4 12.4 90 0.9 WNW 44 65 24 35 1005.4 - 10.4
22/07:30am 14.4 7.0 12.4 88 1.1 WNW 43 50 23 27 1005.4 - 10.4
22/07:00am 14.0 7.4 12.7 92 0.7 WNW 39 50 21 27 1005.1 1005.1 10.4
22/06:30am 14.5 7.8 12.4 87 1.1 WNW 39 48 21 26 1005.0 - 10.4
22/06:00am 14.4 8.1 12.3 87 1.1 NW 37 44 20 24 1005.0 1005.0 10.4
22/05:30am 14.4 7.0 12.4 88 1.1 WNW 43 50 23 27 1004.6 - 10.4
22/05:00am 14.4 6.9 12.1 86 1.3 WNW 43 52 23 28 1004.5 1004.5 10.4
22/04:30am 14.5 7.2 13.4 93 0.6 WNW 44 54 24 29 1004.1 - 10.4
22/04:00am 14.8 7.6 13.8 94 0.6 WNW 44 56 24 30 1003.5 1003.5 10.4
22/03:30am 14.9 6.7 14.1 95 0.5 WNW 50 61 27 33 1003.0 - 10.4
22/03:00am 15.2 6.8 14.6 96 0.3 WNW 52 63 28 34 1002.5 1002.5 10.4
22/02:30am 15.5 6.3 15.0 97 0.3 WNW 57 72 31 39 1002.2 - 10.4
22/02:00am 15.9 6.5 15.4 97 0.3 NW 59 76 32 41 1001.9 1001.9 10.4
22/01:30am 16.2 6.1 15.7 97 0.3 NW 63 83 34 45 1001.6 - 10.4
22/01:15am 16.2 5.7 15.6 96 0.4 NW 65 83 35 45 1001.6 - 10.4
22/01:00am 16.0 5.0 15.2 95 0.5 NW 67 80 36 43 1001.5 1001.5 10.4
22/12:56am 15.9 4.3 15.1 95 0.5 NW 70 80 38 43 1001.4 - 10.4
22/12:30am 15.4 7.2 14.1 92 0.7 NNW 50 69 27 37 1001.3 - 9.4
22/12:20am 15.3 6.2 13.8 91 0.8 NNW 54 85 29 46 1001.3 - 9.2
22/12:10am 14.8 7.8 13.7 93 0.6 NNW 43 61 23 33 1001.4 - 9.2
22/12:00am 14.3 7.0 13.3 94 0.6 N 44 57 24 31 1001.5 1001.5 9.2
 
Date/Time
EST
Temp
°C
App
Temp
°C
Dew
Point
Rel
Hum
%
Delta-T
°C
Wind Press
QNH
hPa
Press
MSL
hPa
Rain
since 9 am
mm
Dir
 
Spd
km/h
Gust
km/h
Spd
kts
Gust
kts
21/11:39pm 13.5 7.5 13.2 98 0.2 N 37 56 20 30 1001.6 - 9.2
21/11:38pm 13.4 8.1 13.1 98 0.2 N 33 50 18 27 1001.7 - 9.2
21/11:30pm 12.5 11.5 12.2 98 0.2 N 9 22 5 12 1002.1 - 9.0
21/11:00pm 11.4 9.7 11.2 99 0.1 N 11 15 6 8 1003.4 1003.4 5.4
21/10:30pm 10.9 8.7 10.7 99 0.1 ENE 13 20 7 11 1004.2 - 2.6
21/10:00pm 10.7 7.7 10.5 99 0.1 ENE 17 22 9 12 1005.1 1005.1 1.8
21/09:30pm 10.4 6.9 10.1 98 0.2 NE 19 24 10 13 1006.1 - 1.8
21/09:00pm 10.2 7.7 9.7 97 0.3 NE 13 20 7 11 1007.2 1007.2 1.4
21/08:30pm 10.0 6.6 9.2 95 0.4 ENE 17 22 9 12 1007.7 - 1.0
21/08:00pm 10.0 6.2 8.9 93 0.5 NE 19 24 10 13 1008.4 1008.4 0.8
21/07:30pm 10.4 8.0 8.7 89 0.8 NNE 11 15 6 8 1009.1 - 0.6
21/07:00pm 11.0 9.2 7.9 81 1.5 NNE 7 9 4 5 1009.7 1009.7 0.0
21/06:30pm 11.2 8.6 7.9 80 1.6 NNE 11 15 6 8 1009.8 - 0.0
21/06:00pm 11.3 7.9 7.6 78 1.8 NE 15 19 8 10 1010.1 1010.1 0.0
21/05:30pm 11.5 8.4 7.2 75 2.1 NNE 13 15 7 8 1010.2 - 0.0
21/05:00pm 11.8 8.3 7.1 73 2.3 NNE 15 20 8 11 1010.3 1010.3 0.0
21/04:30pm 12.2 9.7 6.7 69 2.6 N 9 11 5 6 1011.0 - 0.0
21/04:00pm 12.5 9.1 5.7 63 3.2 N 13 17 7 9 1011.5 1011.5 0.0
21/03:30pm 12.7 9.2 5.6 62 3.3 N 13 17 7 9 1012.2 - 0.0
21/03:00pm 13.0 9.8 5.2 59 3.6 N 11 15 6 8 1012.3 1012.3 0.0
21/02:30pm 13.3 10.8 4.5 55 4.0 N 7 13 4 7 1012.7 - 0.0
21/02:00pm 13.8 11.6 6.2 60 3.6 NW 7 11 4 6 1013.1 1013.1 0.0
21/01:30pm 14.3 11.5 5.1 54 4.3 NNE 9 19 5 10 1013.7 - 0.0
21/01:00pm 13.0 9.3 4.2 55 4.0 NE 13 20 7 11 1014.2 1014.2 0.0
21/12:30pm 12.8 9.1 4.3 56 3.9 ENE 13 20 7 11 1014.8 - 0.0
21/12:00pm 11.9 7.8 4.6 61 3.3 NE 15 20 8 11 1015.4 1015.4 0.0
21/11:30am 11.6 8.2 3.9 59 3.4 NE 11 17 6 9 1016.0 - 0.0
21/11:00am 12.7 9.0 4.2 56 3.9 NNE 13 20 7 11 1016.5 1016.5 0.0
21/10:30am 12.1 8.1 5.0 62 3.3 NNE 15 20 8 11 1016.8 - 0.0
21/10:00am 10.9 6.5 4.8 66 2.8 NNE 17 20 9 11 1017.1 1017.1 0.0
21/09:30am 10.8 6.8 5.1 68 2.6 NNE 15 20 8 11 1017.4 - 0.0
21/09:00am 9.3 5.3 5.1 75 1.9 NNE 15 20 8 11 1017.5 1017.5 3.8
21/08:30am 8.2 3.4 4.4 77 1.7 NNE 19 24 10 13 1017.7 - 3.8
21/08:00am 7.2 2.0 3.8 79 1.5 NNE 20 24 11 13 1017.5 1017.5 3.8
21/07:30am 7.2 2.0 3.6 78 1.5 NNE 20 24 11 13 1017.4 - 3.8
21/07:00am 7.2 2.0 3.6 78 1.5 NNE 20 22 11 12 1017.4 1017.4 3.8
21/06:30am 7.1 2.0 3.3 77 1.6 NNE 19 22 10 12 1017.1 - 3.8
21/06:00am 7.4 2.8 3.5 76 1.7 NNE 17 20 9 11 1017.2 1017.2 3.8
21/05:30am 7.5 2.9 3.6 76 1.7 NNE 17 20 9 11 1016.8 - 3.8
21/05:00am 7.9 4.0 3.6 74 1.8 NNE 13 20 7 11 1016.8 1016.8 3.8
21/04:30am 9.0 6.0 2.3 63 2.8 SW 7 13 4 7 1016.7 - 3.8
21/04:00am 10.3 5.4 1.9 56 3.5 W 17 26 9 14 1016.6 1016.6 3.8
21/03:30am 10.4 5.6 2.7 59 3.3 W 17 20 9 11 1016.4 - 3.8
21/03:00am 10.7 5.8 4.0 63 3.0 W 19 24 10 13 1016.5 1016.5 3.8
21/02:30am 10.8 6.1 3.1 59 3.4 W 17 22 9 12 1016.6 - 3.8

Other Formats:

Comma delimited format used in spreadsheet applications
http://www.bom.gov.au/fwo/IDT60801/IDT60801.95961.axf

JavaScript Object Notation format (JSON) in row-major order
http://www.bom.gov.au/fwo/IDT60801/IDT60801.95961.json